sensor_id;sensor_type;location;lat;lon;timestamp;P1;durP1;ratioP1;P2;durP2;ratioP2
4420;SDS011;11824;51.178;13.546;2023-09-12T00:01:37;14.50;;;10.80;;
4420;SDS011;11824;51.178;13.546;2023-09-12T00:04:08;23.13;;;10.90;;
4420;SDS011;11824;51.178;13.546;2023-09-12T00:06:38;12.80;;;9.80;;
4420;SDS011;11824;51.178;13.546;2023-09-12T00:09:07;14.10;;;10.50;;
4420;SDS011;11824;51.178;13.546;2023-09-12T00:11:36;17.90;;;11.00;;
4420;SDS011;11824;51.178;13.546;2023-09-12T00:14:05;17.73;;;10.80;;
4420;SDS011;11824;51.178;13.546;2023-09-12T00:16:36;18.60;;;12.17;;
4420;SDS011;11824;51.178;13.546;2023-09-12T00:19:05;20.60;;;10.73;;
4420;SDS011;11824;51.178;13.546;2023-09-12T00:21:35;21.77;;;12.20;;
4420;SDS011;11824;51.178;13.546;2023-09-12T00:24:04;18.63;;;12.00;;
4420;SDS011;11824;51.178;13.546;2023-09-12T00:26:33;16.70;;;10.90;;
4420;SDS011;11824;51.178;13.546;2023-09-12T00:29:02;16.93;;;10.60;;
4420;SDS011;11824;51.178;13.546;2023-09-12T00:31:31;15.27;;;11.67;;
4420;SDS011;11824;51.178;13.546;2023-09-12T00:34:00;17.73;;;11.57;;
4420;SDS011;11824;51.178;13.546;2023-09-12T00:36:30;15.60;;;12.40;;
4420;SDS011;11824;51.178;13.546;2023-09-12T00:38:59;16.50;;;11.17;;
4420;SDS011;11824;51.178;13.546;2023-09-12T00:41:28;17.03;;;11.60;;
4420;SDS011;11824;51.178;13.546;2023-09-12T00:43:57;16.00;;;10.73;;
4420;SDS011;11824;51.178;13.546;2023-09-12T00:46:26;35.73;;;13.00;;
4420;SDS011;11824;51.178;13.546;2023-09-12T00:48:56;14.90;;;12.00;;
4420;SDS011;11824;51.178;13.546;2023-09-12T00:51:27;17.30;;;13.30;;
4420;SDS011;11824;51.178;13.546;2023-09-12T00:53:58;16.50;;;12.10;;
4420;SDS011;11824;51.178;13.546;2023-09-12T00:56:27;13.97;;;11.80;;
4420;SDS011;11824;51.178;13.546;2023-09-12T00:58:56;21.93;;;12.40;;
4420;SDS011;11824;51.178;13.546;2023-09-12T01:01:26;19.37;;;13.07;;
4420;SDS011;11824;51.178;13.546;2023-09-12T01:03:57;22.80;;;13.40;;
4420;SDS011;11824;51.178;13.546;2023-09-12T01:06:29;18.47;;;14.00;;
4420;SDS011;11824;51.178;13.546;2023-09-12T01:09:00;38.97;;;14.40;;
4420;SDS011;11824;51.178;13.546;2023-09-12T01:11:30;17.70;;;13.50;;
4420;SDS011;11824;51.178;13.546;2023-09-12T01:13:59;30.70;;;14.40;;
4420;SDS011;11824;51.178;13.546;2023-09-12T01:16:28;19.33;;;13.50;;
4420;SDS011;11824;51.178;13.546;2023-09-12T01:18:57;20.57;;;14.23;;
4420;SDS011;11824;51.178;13.546;2023-09-12T01:21:34;19.73;;;13.87;;
4420;SDS011;11824;51.178;13.546;2023-09-12T01:24:39;16.40;;;11.73;;
4420;SDS011;11824;51.178;13.546;2023-09-12T01:27:32;20.13;;;13.80;;
4420;SDS011;11824;51.178;13.546;2023-09-12T01:30:05;19.37;;;13.07;;
4420;SDS011;11824;51.178;13.546;2023-09-12T01:32:35;19.87;;;11.90;;
4420;SDS011;11824;51.178;13.546;2023-09-12T01:35:07;18.30;;;12.40;;
4420;SDS011;11824;51.178;13.546;2023-09-12T01:37:36;19.40;;;13.27;;
4420;SDS011;11824;51.178;13.546;2023-09-12T01:40:06;21.10;;;13.87;;
4420;SDS011;11824;51.178;13.546;2023-09-12T01:42:42;25.50;;;16.33;;
4420;SDS011;11824;51.178;13.546;2023-09-12T01:45:13;22.57;;;14.73;;
4420;SDS011;11824;51.178;13.546;2023-09-12T01:47:49;17.63;;;13.77;;
4420;SDS011;11824;51.178;13.546;2023-09-12T01:50:19;20.67;;;14.33;;
4420;SDS011;11824;51.178;13.546;2023-09-12T01:52:48;18.80;;;14.87;;
4420;SDS011;11824;51.178;13.546;2023-09-12T01:55:18;16.83;;;14.30;;
4420;SDS011;11824;51.178;13.546;2023-09-12T01:57:49;23.37;;;14.40;;
4420;SDS011;11824;51.178;13.546;2023-09-12T02:00:19;19.80;;;14.80;;
4420;SDS011;11824;51.178;13.546;2023-09-12T02:02:49;20.80;;;14.17;;
4420;SDS011;11824;51.178;13.546;2023-09-12T02:05:19;33.30;;;17.17;;
4420;SDS011;11824;51.178;13.546;2023-09-12T02:07:50;32.90;;;16.07;;
4420;SDS011;11824;51.178;13.546;2023-09-12T02:10:19;29.20;;;14.30;;
4420;SDS011;11824;51.178;13.546;2023-09-12T02:12:50;23.83;;;15.70;;
4420;SDS011;11824;51.178;13.546;2023-09-12T02:15:20;20.67;;;15.43;;
4420;SDS011;11824;51.178;13.546;2023-09-12T02:17:49;27.63;;;15.10;;
4420;SDS011;11824;51.178;13.546;2023-09-12T02:20:19;20.73;;;15.20;;
4420;SDS011;11824;51.178;13.546;2023-09-12T02:22:49;26.03;;;16.23;;
4420;SDS011;11824;51.178;13.546;2023-09-12T02:25:18;24.83;;;15.47;;
4420;SDS011;11824;51.178;13.546;2023-09-12T02:27:47;20.60;;;15.80;;
4420;SDS011;11824;51.178;13.546;2023-09-12T02:30:18;24.07;;;16.10;;
4420;SDS011;11824;51.178;13.546;2023-09-12T02:32:47;25.40;;;16.33;;
4420;SDS011;11824;51.178;13.546;2023-09-12T02:35:17;21.33;;;15.97;;
4420;SDS011;11824;51.178;13.546;2023-09-12T02:37:46;23.00;;;15.63;;
4420;SDS011;11824;51.178;13.546;2023-09-12T02:40:16;28.57;;;17.87;;
4420;SDS011;11824;51.178;13.546;2023-09-12T02:42:45;22.97;;;16.97;;
4420;SDS011;11824;51.178;13.546;2023-09-12T02:45:17;23.80;;;16.80;;
4420;SDS011;11824;51.178;13.546;2023-09-12T02:47:47;26.60;;;17.23;;
4420;SDS011;11824;51.178;13.546;2023-09-12T02:50:19;28.00;;;16.70;;
4420;SDS011;11824;51.178;13.546;2023-09-12T02:52:48;29.27;;;17.60;;
4420;SDS011;11824;51.178;13.546;2023-09-12T02:55:18;24.03;;;15.73;;
4420;SDS011;11824;51.178;13.546;2023-09-12T02:57:47;23.27;;;18.40;;
4420;SDS011;11824;51.178;13.546;2023-09-12T03:00:18;26.50;;;17.90;;
4420;SDS011;11824;51.178;13.546;2023-09-12T03:02:48;27.03;;;19.60;;
4420;SDS011;11824;51.178;13.546;2023-09-12T03:05:18;22.07;;;18.60;;
4420;SDS011;11824;51.178;13.546;2023-09-12T03:07:47;26.50;;;17.90;;
4420;SDS011;11824;51.178;13.546;2023-09-12T03:10:16;30.97;;;18.40;;
4420;SDS011;11824;51.178;13.546;2023-09-12T03:12:47;26.37;;;18.70;;
4420;SDS011;11824;51.178;13.546;2023-09-12T03:15:18;21.70;;;18.03;;
4420;SDS011;11824;51.178;13.546;2023-09-12T03:17:48;26.53;;;18.97;;
4420;SDS011;11824;51.178;13.546;2023-09-12T03:20:18;31.27;;;18.10;;
4420;SDS011;11824;51.178;13.546;2023-09-12T03:22:47;22.40;;;16.57;;
4420;SDS011;11824;51.178;13.546;2023-09-12T03:25:17;27.60;;;18.10;;
4420;SDS011;11824;51.178;13.546;2023-09-12T03:27:47;25.33;;;18.83;;
4420;SDS011;11824;51.178;13.546;2023-09-12T03:30:17;29.43;;;17.90;;
4420;SDS011;11824;51.178;13.546;2023-09-12T03:32:49;24.33;;;18.60;;
4420;SDS011;11824;51.178;13.546;2023-09-12T03:35:19;30.20;;;17.50;;
4420;SDS011;11824;51.178;13.546;2023-09-12T03:37:50;26.90;;;18.00;;
4420;SDS011;11824;51.178;13.546;2023-09-12T03:40:20;30.77;;;18.53;;
4420;SDS011;11824;51.178;13.546;2023-09-12T03:42:50;30.53;;;19.13;;
4420;SDS011;11824;51.178;13.546;2023-09-12T03:45:25;27.87;;;18.17;;
4420;SDS011;11824;51.178;13.546;2023-09-12T03:47:54;32.57;;;19.43;;
4420;SDS011;11824;51.178;13.546;2023-09-12T03:50:25;38.80;;;19.30;;
4420;SDS011;11824;51.178;13.546;2023-09-12T03:52:54;25.50;;;18.47;;
4420;SDS011;11824;51.178;13.546;2023-09-12T03:55:24;31.37;;;18.50;;
4420;SDS011;11824;51.178;13.546;2023-09-12T03:57:54;33.93;;;18.10;;
4420;SDS011;11824;51.178;13.546;2023-09-12T04:00:26;30.73;;;18.60;;
4420;SDS011;11824;51.178;13.546;2023-09-12T04:02:55;33.70;;;18.90;;
4420;SDS011;11824;51.178;13.546;2023-09-12T04:05:24;45.40;;;19.40;;
4420;SDS011;11824;51.178;13.546;2023-09-12T04:07:54;35.37;;;19.33;;
4420;SDS011;11824;51.178;13.546;2023-09-12T04:10:22;31.50;;;21.87;;
4420;SDS011;11824;51.178;13.546;2023-09-12T04:12:52;35.57;;;19.03;;
4420;SDS011;11824;51.178;13.546;2023-09-12T04:15:21;28.90;;;19.03;;
4420;SDS011;11824;51.178;13.546;2023-09-12T04:17:52;41.20;;;19.33;;
4420;SDS011;11824;51.178;13.546;2023-09-12T04:20:21;65.03;;;39.03;;
4420;SDS011;11824;51.178;13.546;2023-09-12T04:22:50;43.27;;;20.50;;
4420;SDS011;11824;51.178;13.546;2023-09-12T04:25:20;40.63;;;22.10;;
4420;SDS011;11824;51.178;13.546;2023-09-12T04:27:49;48.50;;;21.57;;
4420;SDS011;11824;51.178;13.546;2023-09-12T04:30:19;54.40;;;22.07;;
4420;SDS011;11824;51.178;13.546;2023-09-12T04:32:48;30.70;;;21.27;;
4420;SDS011;11824;51.178;13.546;2023-09-12T04:35:19;39.00;;;21.80;;
4420;SDS011;11824;51.178;13.546;2023-09-12T04:37:52;48.53;;;20.20;;
4420;SDS011;11824;51.178;13.546;2023-09-12T04:40:21;43.70;;;21.50;;
4420;SDS011;11824;51.178;13.546;2023-09-12T04:42:50;41.23;;;22.00;;
4420;SDS011;11824;51.178;13.546;2023-09-12T04:45:23;30.83;;;21.17;;
4420;SDS011;11824;51.178;13.546;2023-09-12T04:47:55;38.70;;;19.90;;
4420;SDS011;11824;51.178;13.546;2023-09-12T04:50:26;40.77;;;21.57;;
4420;SDS011;11824;51.178;13.546;2023-09-12T04:52:56;33.93;;;20.60;;
4420;SDS011;11824;51.178;13.546;2023-09-12T04:55:25;35.60;;;20.17;;
4420;SDS011;11824;51.178;13.546;2023-09-12T04:57:55;44.13;;;20.40;;
4420;SDS011;11824;51.178;13.546;2023-09-12T05:00:25;35.00;;;20.57;;
4420;SDS011;11824;51.178;13.546;2023-09-12T05:02:55;45.43;;;22.17;;
4420;SDS011;11824;51.178;13.546;2023-09-12T05:05:24;31.13;;;20.37;;
4420;SDS011;11824;51.178;13.546;2023-09-12T05:07:55;40.10;;;21.90;;
4420;SDS011;11824;51.178;13.546;2023-09-12T05:10:24;30.80;;;20.27;;
4420;SDS011;11824;51.178;13.546;2023-09-12T05:12:54;40.90;;;21.67;;
4420;SDS011;11824;51.178;13.546;2023-09-12T05:15:23;46.43;;;21.03;;
4420;SDS011;11824;51.178;13.546;2023-09-12T05:17:53;34.67;;;22.40;;
4420;SDS011;11824;51.178;13.546;2023-09-12T05:20:22;35.10;;;21.13;;
4420;SDS011;11824;51.178;13.546;2023-09-12T05:22:53;67.20;;;20.50;;
4420;SDS011;11824;51.178;13.546;2023-09-12T05:25:22;41.80;;;23.03;;
4420;SDS011;11824;51.178;13.546;2023-09-12T05:27:54;40.97;;;21.17;;
4420;SDS011;11824;51.178;13.546;2023-09-12T05:30:23;36.40;;;21.03;;
4420;SDS011;11824;51.178;13.546;2023-09-12T05:32:53;51.50;;;21.07;;
4420;SDS011;11824;51.178;13.546;2023-09-12T05:35:22;48.87;;;21.10;;
4420;SDS011;11824;51.178;13.546;2023-09-12T05:37:53;44.83;;;19.67;;
4420;SDS011;11824;51.178;13.546;2023-09-12T05:40:22;63.80;;;21.70;;
4420;SDS011;11824;51.178;13.546;2023-09-12T05:42:51;50.97;;;17.10;;
4420;SDS011;11824;51.178;13.546;2023-09-12T05:45:20;34.93;;;19.00;;
4420;SDS011;11824;51.178;13.546;2023-09-12T05:47:50;54.63;;;19.13;;
4420;SDS011;11824;51.178;13.546;2023-09-12T05:50:19;42.07;;;18.27;;
4420;SDS011;11824;51.178;13.546;2023-09-12T05:52:48;42.47;;;16.70;;
4420;SDS011;11824;51.178;13.546;2023-09-12T05:55:18;44.80;;;19.93;;
4420;SDS011;11824;51.178;13.546;2023-09-12T05:57:48;48.63;;;17.20;;
4420;SDS011;11824;51.178;13.546;2023-09-12T06:00:19;37.90;;;19.00;;
4420;SDS011;11824;51.178;13.546;2023-09-12T06:02:48;31.53;;;18.30;;
4420;SDS011;11824;51.178;13.546;2023-09-12T06:05:17;35.10;;;18.83;;
4420;SDS011;11824;51.178;13.546;2023-09-12T06:07:46;24.80;;;18.03;;
4420;SDS011;11824;51.178;13.546;2023-09-12T06:10:15;26.07;;;20.63;;
4420;SDS011;11824;51.178;13.546;2023-09-12T06:12:45;32.37;;;20.33;;
4420;SDS011;11824;51.178;13.546;2023-09-12T06:15:14;23.53;;;19.37;;
4420;SDS011;11824;51.178;13.546;2023-09-12T06:17:43;25.90;;;20.70;;
4420;SDS011;11824;51.178;13.546;2023-09-12T06:20:12;22.90;;;19.13;;
4420;SDS011;11824;51.178;13.546;2023-09-12T06:22:41;26.33;;;20.73;;
4420;SDS011;11824;51.178;13.546;2023-09-12T06:25:10;34.93;;;20.60;;
4420;SDS011;11824;51.178;13.546;2023-09-12T06:27:39;34.17;;;20.60;;
4420;SDS011;11824;51.178;13.546;2023-09-12T06:30:10;49.30;;;21.33;;
4420;SDS011;11824;51.178;13.546;2023-09-12T06:32:40;28.93;;;20.10;;
4420;SDS011;11824;51.178;13.546;2023-09-12T06:35:08;34.03;;;22.17;;
4420;SDS011;11824;51.178;13.546;2023-09-12T06:37:37;49.43;;;21.93;;
4420;SDS011;11824;51.178;13.546;2023-09-12T06:40:07;40.53;;;20.67;;
4420;SDS011;11824;51.178;13.546;2023-09-12T06:42:36;31.70;;;19.47;;
4420;SDS011;11824;51.178;13.546;2023-09-12T06:45:05;33.47;;;20.77;;
4420;SDS011;11824;51.178;13.546;2023-09-12T06:47:36;32.63;;;23.33;;
4420;SDS011;11824;51.178;13.546;2023-09-12T06:50:06;42.47;;;20.87;;
4420;SDS011;11824;51.178;13.546;2023-09-12T06:52:41;23.40;;;17.33;;
4420;SDS011;11824;51.178;13.546;2023-09-12T06:55:09;25.87;;;20.67;;
4420;SDS011;11824;51.178;13.546;2023-09-12T06:57:38;31.10;;;20.80;;
4420;SDS011;11824;51.178;13.546;2023-09-12T07:00:07;34.00;;;18.83;;
4420;SDS011;11824;51.178;13.546;2023-09-12T07:02:39;31.47;;;20.37;;
4420;SDS011;11824;51.178;13.546;2023-09-12T07:05:08;31.33;;;20.70;;
4420;SDS011;11824;51.178;13.546;2023-09-12T07:07:37;23.07;;;18.23;;
4420;SDS011;11824;51.178;13.546;2023-09-12T07:10:06;31.57;;;18.63;;
4420;SDS011;11824;51.178;13.546;2023-09-12T07:12:50;36.17;;;19.20;;
4420;SDS011;11824;51.178;13.546;2023-09-12T07:15:20;23.60;;;16.40;;
4420;SDS011;11824;51.178;13.546;2023-09-12T07:17:50;23.63;;;18.17;;
4420;SDS011;11824;51.178;13.546;2023-09-12T07:20:19;30.63;;;17.73;;
4420;SDS011;11824;51.178;13.546;2023-09-12T07:22:48;27.93;;;16.67;;
4420;SDS011;11824;51.178;13.546;2023-09-12T07:25:19;20.57;;;17.00;;
4420;SDS011;11824;51.178;13.546;2023-09-12T07:27:50;24.97;;;16.43;;
4420;SDS011;11824;51.178;13.546;2023-09-12T07:30:19;28.63;;;15.90;;
4420;SDS011;11824;51.178;13.546;2023-09-12T07:32:48;26.57;;;15.30;;
4420;SDS011;11824;51.178;13.546;2023-09-12T07:35:18;31.80;;;14.93;;
4420;SDS011;11824;51.178;13.546;2023-09-12T07:37:50;31.90;;;15.80;;
4420;SDS011;11824;51.178;13.546;2023-09-12T07:40:19;30.80;;;14.50;;
4420;SDS011;11824;51.178;13.546;2023-09-12T07:42:48;42.43;;;14.67;;
4420;SDS011;11824;51.178;13.546;2023-09-12T07:45:20;20.50;;;13.63;;
4420;SDS011;11824;51.178;13.546;2023-09-12T07:47:48;21.07;;;14.00;;
4420;SDS011;11824;51.178;13.546;2023-09-12T07:50:19;22.77;;;12.97;;
4420;SDS011;11824;51.178;13.546;2023-09-12T07:52:47;27.90;;;15.07;;
4420;SDS011;11824;51.178;13.546;2023-09-12T07:55:17;16.17;;;11.20;;
4420;SDS011;11824;51.178;13.546;2023-09-12T07:57:46;17.17;;;12.70;;
4420;SDS011;11824;51.178;13.546;2023-09-12T08:00:15;16.90;;;12.30;;
4420;SDS011;11824;51.178;13.546;2023-09-12T08:02:44;24.23;;;13.07;;
4420;SDS011;11824;51.178;13.546;2023-09-12T08:05:14;24.43;;;11.67;;
4420;SDS011;11824;51.178;13.546;2023-09-12T08:07:43;20.50;;;12.07;;
4420;SDS011;11824;51.178;13.546;2023-09-12T08:10:12;21.07;;;12.07;;
4420;SDS011;11824;51.178;13.546;2023-09-12T08:12:41;18.63;;;12.97;;
4420;SDS011;11824;51.178;13.546;2023-09-12T08:15:09;26.30;;;11.53;;
4420;SDS011;11824;51.178;13.546;2023-09-12T08:17:38;19.60;;;11.60;;
4420;SDS011;11824;51.178;13.546;2023-09-12T08:20:08;18.20;;;11.27;;
4420;SDS011;11824;51.178;13.546;2023-09-12T08:22:38;18.93;;;10.57;;
4420;SDS011;11824;51.178;13.546;2023-09-12T08:25:07;15.20;;;10.80;;
4420;SDS011;11824;51.178;13.546;2023-09-12T08:27:39;35.17;;;11.20;;
4420;SDS011;11824;51.178;13.546;2023-09-12T08:30:09;18.33;;;10.23;;
4420;SDS011;11824;51.178;13.546;2023-09-12T08:32:40;17.73;;;11.80;;
4420;SDS011;11824;51.178;13.546;2023-09-12T08:35:14;24.90;;;11.70;;
4420;SDS011;11824;51.178;13.546;2023-09-12T08:37:48;18.30;;;10.63;;
4420;SDS011;11824;51.178;13.546;2023-09-12T08:40:17;22.33;;;12.07;;
4420;SDS011;11824;51.178;13.546;2023-09-12T08:42:46;26.30;;;11.10;;
4420;SDS011;11824;51.178;13.546;2023-09-12T08:45:17;28.20;;;10.17;;
4420;SDS011;11824;51.178;13.546;2023-09-12T08:47:49;14.83;;;10.50;;
4420;SDS011;11824;51.178;13.546;2023-09-12T08:50:20;18.57;;;9.60;;
4420;SDS011;11824;51.178;13.546;2023-09-12T08:52:52;19.80;;;9.57;;
4420;SDS011;11824;51.178;13.546;2023-09-12T08:55:33;19.47;;;10.40;;
4420;SDS011;11824;51.178;13.546;2023-09-12T08:58:03;15.00;;;10.10;;
4420;SDS011;11824;51.178;13.546;2023-09-12T09:00:33;13.10;;;9.23;;
4420;SDS011;11824;51.178;13.546;2023-09-12T09:03:03;17.00;;;10.10;;
4420;SDS011;11824;51.178;13.546;2023-09-12T09:05:33;16.40;;;9.33;;
4420;SDS011;11824;51.178;13.546;2023-09-12T09:08:05;12.47;;;9.40;;
4420;SDS011;11824;51.178;13.546;2023-09-12T09:10:35;16.20;;;9.50;;
4420;SDS011;11824;51.178;13.546;2023-09-12T09:13:16;14.93;;;8.83;;
4420;SDS011;11824;51.178;13.546;2023-09-12T09:15:45;12.60;;;8.80;;
4420;SDS011;11824;51.178;13.546;2023-09-12T09:18:14;16.27;;;8.97;;
4420;SDS011;11824;51.178;13.546;2023-09-12T09:20:44;16.70;;;8.73;;
4420;SDS011;11824;51.178;13.546;2023-09-12T09:23:17;15.47;;;8.50;;
4420;SDS011;11824;51.178;13.546;2023-09-12T09:25:51;18.83;;;7.90;;
4420;SDS011;11824;51.178;13.546;2023-09-12T09:28:21;20.67;;;10.07;;
4420;SDS011;11824;51.178;13.546;2023-09-12T09:30:51;18.73;;;9.07;;
4420;SDS011;11824;51.178;13.546;2023-09-12T09:33:21;11.90;;;8.40;;
4420;SDS011;11824;51.178;13.546;2023-09-12T09:35:51;12.20;;;9.30;;
4420;SDS011;11824;51.178;13.546;2023-09-12T09:38:34;11.90;;;8.50;;
4420;SDS011;11824;51.178;13.546;2023-09-12T09:41:04;15.53;;;8.60;;
4420;SDS011;11824;51.178;13.546;2023-09-12T09:43:33;18.40;;;7.40;;
4420;SDS011;11824;51.178;13.546;2023-09-12T09:46:02;13.27;;;7.80;;
4420;SDS011;11824;51.178;13.546;2023-09-12T09:48:31;12.87;;;8.27;;
4420;SDS011;11824;51.178;13.546;2023-09-12T09:51:01;13.60;;;7.83;;
4420;SDS011;11824;51.178;13.546;2023-09-12T09:53:31;18.60;;;8.40;;
4420;SDS011;11824;51.178;13.546;2023-09-12T09:56:09;14.67;;;6.20;;
4420;SDS011;11824;51.178;13.546;2023-09-12T09:58:45;21.53;;;8.13;;
4420;SDS011;11824;51.178;13.546;2023-09-12T10:01:16;12.83;;;6.40;;
4420;SDS011;11824;51.178;13.546;2023-09-12T10:03:47;23.50;;;7.97;;
4420;SDS011;11824;51.178;13.546;2023-09-12T10:06:18;20.63;;;11.87;;
4420;SDS011;11824;51.178;13.546;2023-09-12T10:08:49;34.60;;;19.57;;
4420;SDS011;11824;51.178;13.546;2023-09-12T10:11:22;12.97;;;6.87;;
4420;SDS011;11824;51.178;13.546;2023-09-12T10:13:53;13.53;;;7.20;;
4420;SDS011;11824;51.178;13.546;2023-09-12T10:16:23;13.97;;;7.33;;
4420;SDS011;11824;51.178;13.546;2023-09-12T10:18:58;10.53;;;6.60;;
4420;SDS011;11824;51.178;13.546;2023-09-12T10:21:37;15.57;;;6.63;;
4420;SDS011;11824;51.178;13.546;2023-09-12T10:24:12;17.40;;;8.10;;
4420;SDS011;11824;51.178;13.546;2023-09-12T10:26:44;15.63;;;6.60;;
4420;SDS011;11824;51.178;13.546;2023-09-12T10:29:17;14.20;;;7.33;;
4420;SDS011;11824;51.178;13.546;2023-09-12T10:31:46;16.10;;;9.37;;
4420;SDS011;11824;51.178;13.546;2023-09-12T10:34:16;12.77;;;6.93;;
4420;SDS011;11824;51.178;13.546;2023-09-12T10:36:46;16.53;;;7.73;;
4420;SDS011;11824;51.178;13.546;2023-09-12T10:39:15;16.93;;;10.37;;
4420;SDS011;11824;51.178;13.546;2023-09-12T10:41:47;18.40;;;7.90;;
4420;SDS011;11824;51.178;13.546;2023-09-12T10:44:19;22.80;;;10.80;;
4420;SDS011;11824;51.178;13.546;2023-09-12T10:46:49;24.17;;;7.30;;
4420;SDS011;11824;51.178;13.546;2023-09-12T10:49:19;14.10;;;5.97;;
4420;SDS011;11824;51.178;13.546;2023-09-12T10:51:52;16.77;;;6.50;;
4420;SDS011;11824;51.178;13.546;2023-09-12T10:54:23;14.03;;;10.40;;
4420;SDS011;11824;51.178;13.546;2023-09-12T10:57:03;17.40;;;7.57;;
4420;SDS011;11824;51.178;13.546;2023-09-12T10:59:32;19.17;;;7.07;;
4420;SDS011;11824;51.178;13.546;2023-09-12T11:04:57;11.87;;;6.10;;
4420;SDS011;11824;51.178;13.546;2023-09-12T11:07:30;14.03;;;6.30;;
4420;SDS011;11824;51.178;13.546;2023-09-12T11:10:16;14.40;;;6.67;;
4420;SDS011;11824;51.178;13.546;2023-09-12T11:12:50;13.10;;;5.97;;
4420;SDS011;11824;51.178;13.546;2023-09-12T11:15:21;23.03;;;6.60;;
4420;SDS011;11824;51.178;13.546;2023-09-12T11:17:59;17.17;;;6.03;;
4420;SDS011;11824;51.178;13.546;2023-09-12T11:20:49;31.20;;;7.90;;
4420;SDS011;11824;51.178;13.546;2023-09-12T11:23:20;25.73;;;7.50;;
4420;SDS011;11824;51.178;13.546;2023-09-12T11:26:01;17.90;;;6.03;;
4420;SDS011;11824;51.178;13.546;2023-09-12T11:28:37;19.20;;;6.40;;
4420;SDS011;11824;51.178;13.546;2023-09-12T11:31:09;20.10;;;6.43;;
4420;SDS011;11824;51.178;13.546;2023-09-12T11:33:40;23.10;;;6.43;;
4420;SDS011;11824;51.178;13.546;2023-09-12T11:36:12;17.80;;;5.60;;
4420;SDS011;11824;51.178;13.546;2023-09-12T11:38:41;18.00;;;6.33;;
4420;SDS011;11824;51.178;13.546;2023-09-12T11:41:10;19.10;;;6.20;;
4420;SDS011;11824;51.178;13.546;2023-09-12T11:43:40;21.63;;;5.83;;
4420;SDS011;11824;51.178;13.546;2023-09-12T11:46:10;19.00;;;5.73;;
4420;SDS011;11824;51.178;13.546;2023-09-12T11:48:38;15.37;;;5.50;;
4420;SDS011;11824;51.178;13.546;2023-09-12T11:51:07;18.23;;;5.43;;
4420;SDS011;11824;51.178;13.546;2023-09-12T11:53:36;16.80;;;6.33;;
4420;SDS011;11824;51.178;13.546;2023-09-12T11:56:05;17.87;;;6.43;;
4420;SDS011;11824;51.178;13.546;2023-09-12T11:58:34;13.30;;;6.47;;
4420;SDS011;11824;51.178;13.546;2023-09-12T12:01:05;17.43;;;5.87;;
4420;SDS011;11824;51.178;13.546;2023-09-12T12:03:39;15.77;;;6.50;;
4420;SDS011;11824;51.178;13.546;2023-09-12T12:06:08;23.90;;;5.83;;
4420;SDS011;11824;51.178;13.546;2023-09-12T12:08:37;23.03;;;6.73;;
4420;SDS011;11824;51.178;13.546;2023-09-12T12:11:06;17.00;;;5.60;;
4420;SDS011;11824;51.178;13.546;2023-09-12T12:13:35;19.67;;;5.60;;
4420;SDS011;11824;51.178;13.546;2023-09-12T12:16:15;12.07;;;5.57;;
4420;SDS011;11824;51.178;13.546;2023-09-12T12:18:44;15.23;;;5.47;;
4420;SDS011;11824;51.178;13.546;2023-09-12T12:21:14;19.67;;;5.80;;
4420;SDS011;11824;51.178;13.546;2023-09-12T12:23:42;20.87;;;6.47;;
4420;SDS011;11824;51.178;13.546;2023-09-12T12:26:11;34.13;;;6.20;;
4420;SDS011;11824;51.178;13.546;2023-09-12T12:28:40;25.33;;;6.50;;
4420;SDS011;11824;51.178;13.546;2023-09-12T12:31:09;20.83;;;7.10;;
4420;SDS011;11824;51.178;13.546;2023-09-12T12:33:40;17.20;;;6.73;;
4420;SDS011;11824;51.178;13.546;2023-09-12T12:36:40;19.83;;;5.33;;
4420;SDS011;11824;51.178;13.546;2023-09-12T12:39:23;19.77;;;5.73;;
4420;SDS011;11824;51.178;13.546;2023-09-12T12:41:52;16.37;;;6.20;;
4420;SDS011;11824;51.178;13.546;2023-09-12T12:44:21;16.63;;;6.10;;
4420;SDS011;11824;51.178;13.546;2023-09-12T12:46:59;17.73;;;5.80;;
4420;SDS011;11824;51.178;13.546;2023-09-12T12:49:37;31.47;;;5.70;;
4420;SDS011;11824;51.178;13.546;2023-09-12T12:52:09;16.43;;;5.37;;
4420;SDS011;11824;51.178;13.546;2023-09-12T12:54:38;27.87;;;5.80;;
4420;SDS011;11824;51.178;13.546;2023-09-12T12:57:10;23.77;;;6.73;;
4420;SDS011;11824;51.178;13.546;2023-09-12T12:59:44;19.57;;;6.00;;
4420;SDS011;11824;51.178;13.546;2023-09-12T13:02:13;23.17;;;6.90;;
4420;SDS011;11824;51.178;13.546;2023-09-12T13:04:43;16.67;;;5.50;;
4420;SDS011;11824;51.178;13.546;2023-09-12T13:07:12;14.60;;;6.33;;
4420;SDS011;11824;51.178;13.546;2023-09-12T13:09:41;18.30;;;6.03;;
4420;SDS011;11824;51.178;13.546;2023-09-12T13:12:10;12.40;;;6.00;;
4420;SDS011;11824;51.178;13.546;2023-09-12T13:14:39;18.70;;;5.90;;
4420;SDS011;11824;51.178;13.546;2023-09-12T13:17:07;16.17;;;6.20;;
4420;SDS011;11824;51.178;13.546;2023-09-12T13:19:36;17.37;;;5.50;;
4420;SDS011;11824;51.178;13.546;2023-09-12T13:22:07;18.67;;;5.33;;
4420;SDS011;11824;51.178;13.546;2023-09-12T13:24:35;18.20;;;6.13;;
4420;SDS011;11824;51.178;13.546;2023-09-12T13:27:04;20.20;;;5.40;;
4420;SDS011;11824;51.178;13.546;2023-09-12T13:29:33;22.60;;;5.40;;
4420;SDS011;11824;51.178;13.546;2023-09-12T13:32:02;26.03;;;6.33;;
4420;SDS011;11824;51.178;13.546;2023-09-12T13:34:31;33.73;;;6.17;;
4420;SDS011;11824;51.178;13.546;2023-09-12T13:37:00;14.30;;;5.50;;
4420;SDS011;11824;51.178;13.546;2023-09-12T13:39:39;17.07;;;5.63;;
4420;SDS011;11824;51.178;13.546;2023-09-12T13:42:14;25.97;;;5.60;;
4420;SDS011;11824;51.178;13.546;2023-09-12T13:44:46;12.00;;;5.60;;
4420;SDS011;11824;51.178;13.546;2023-09-12T13:47:15;13.90;;;6.03;;
4420;SDS011;11824;51.178;13.546;2023-09-12T13:49:49;34.43;;;6.97;;
4420;SDS011;11824;51.178;13.546;2023-09-12T13:52:19;16.63;;;5.73;;
4420;SDS011;11824;51.178;13.546;2023-09-12T13:54:50;19.30;;;6.00;;
4420;SDS011;11824;51.178;13.546;2023-09-12T13:57:21;21.17;;;6.10;;
4420;SDS011;11824;51.178;13.546;2023-09-12T13:59:49;24.53;;;6.60;;
4420;SDS011;11824;51.178;13.546;2023-09-12T14:02:18;15.23;;;6.40;;
4420;SDS011;11824;51.178;13.546;2023-09-12T14:04:49;16.20;;;6.10;;
4420;SDS011;11824;51.178;13.546;2023-09-12T14:07:28;16.70;;;6.20;;
4420;SDS011;11824;51.178;13.546;2023-09-12T14:09:59;26.63;;;6.43;;
4420;SDS011;11824;51.178;13.546;2023-09-12T14:12:29;15.27;;;5.90;;
4420;SDS011;11824;51.178;13.546;2023-09-12T14:14:58;16.40;;;5.60;;
4420;SDS011;11824;51.178;13.546;2023-09-12T14:17:34;23.30;;;6.90;;
4420;SDS011;11824;51.178;13.546;2023-09-12T14:20:11;21.80;;;5.90;;
4420;SDS011;11824;51.178;13.546;2023-09-12T14:22:42;20.23;;;6.07;;
4420;SDS011;11824;51.178;13.546;2023-09-12T14:25:12;20.87;;;5.43;;
4420;SDS011;11824;51.178;13.546;2023-09-12T14:27:42;32.33;;;5.80;;
4420;SDS011;11824;51.178;13.546;2023-09-12T14:30:11;14.73;;;5.53;;
4420;SDS011;11824;51.178;13.546;2023-09-12T14:32:40;21.40;;;6.23;;
4420;SDS011;11824;51.178;13.546;2023-09-12T14:35:09;23.93;;;6.80;;
4420;SDS011;11824;51.178;13.546;2023-09-12T14:37:38;14.63;;;6.30;;
4420;SDS011;11824;51.178;13.546;2023-09-12T14:40:09;30.10;;;6.00;;
4420;SDS011;11824;51.178;13.546;2023-09-12T14:42:43;24.10;;;6.90;;
4420;SDS011;11824;51.178;13.546;2023-09-12T14:45:13;24.70;;;7.00;;
4420;SDS011;11824;51.178;13.546;2023-09-12T14:47:42;23.50;;;6.60;;
4420;SDS011;11824;51.178;13.546;2023-09-12T14:50:11;16.30;;;5.63;;